sensor_id;sensor_type;location;lat;lon;timestamp;temperature;humidity
40868;DHT22;26586;50.708;22.412;2022-11-15T00:00:51;16.00;54.70
40868;DHT22;26586;50.708;22.412;2022-11-15T00:03:27;16.00;55.00
40868;DHT22;26586;50.708;22.412;2022-11-15T00:05:53;16.00;54.80
40868;DHT22;26586;50.708;22.412;2022-11-15T00:08:19;16.00;54.10
40868;DHT22;26586;50.708;22.412;2022-11-15T00:10:56;16.00;53.90
40868;DHT22;26586;50.708;22.412;2022-11-15T00:13:23;15.90;53.80
40868;DHT22;26586;50.708;22.412;2022-11-15T00:15:49;15.90;53.60
40868;DHT22;26586;50.708;22.412;2022-11-15T00:18:16;15.90;54.30
40868;DHT22;26586;50.708;22.412;2022-11-15T00:20:43;15.90;54.30
40868;DHT22;26586;50.708;22.412;2022-11-15T00:23:10;15.90;54.40
40868;DHT22;26586;50.708;22.412;2022-11-15T00:25:36;15.90;54.20
40868;DHT22;26586;50.708;22.412;2022-11-15T00:28:02;15.90;54.10
40868;DHT22;26586;50.708;22.412;2022-11-15T00:30:29;15.90;54.20
40868;DHT22;26586;50.708;22.412;2022-11-15T00:32:55;15.90;54.00
40868;DHT22;26586;50.708;22.412;2022-11-15T00:35:22;15.90;54.00
40868;DHT22;26586;50.708;22.412;2022-11-15T00:37:48;15.90;54.10
40868;DHT22;26586;50.708;22.412;2022-11-15T00:40:15;15.90;54.60
40868;DHT22;26586;50.708;22.412;2022-11-15T00:42:41;15.90;54.20
40868;DHT22;26586;50.708;22.412;2022-11-15T00:45:08;15.80;54.70
40868;DHT22;26586;50.708;22.412;2022-11-15T00:47:35;15.80;54.50
40868;DHT22;26586;50.708;22.412;2022-11-15T00:50:01;15.90;55.10
40868;DHT22;26586;50.708;22.412;2022-11-15T00:52:27;15.80;54.40
40868;DHT22;26586;50.708;22.412;2022-11-15T00:54:53;15.90;54.40
40868;DHT22;26586;50.708;22.412;2022-11-15T00:57:20;15.80;54.50
40868;DHT22;26586;50.708;22.412;2022-11-15T00:59:46;15.80;54.70
40868;DHT22;26586;50.708;22.412;2022-11-15T01:02:12;15.80;54.80
40868;DHT22;26586;50.708;22.412;2022-11-15T01:04:38;15.80;54.70
40868;DHT22;26586;50.708;22.412;2022-11-15T01:07:05;15.80;54.90
40868;DHT22;26586;50.708;22.412;2022-11-15T01:09:31;15.80;54.70
40868;DHT22;26586;50.708;22.412;2022-11-15T01:11:57;15.80;55.10
40868;DHT22;26586;50.708;22.412;2022-11-15T01:14:23;15.80;54.60
40868;DHT22;26586;50.708;22.412;2022-11-15T01:16:49;15.80;54.80
40868;DHT22;26586;50.708;22.412;2022-11-15T01:19:16;15.80;54.40
40868;DHT22;26586;50.708;22.412;2022-11-15T01:21:42;15.80;54.50
40868;DHT22;26586;50.708;22.412;2022-11-15T01:24:12;15.80;55.20
40868;DHT22;26586;50.708;22.412;2022-11-15T01:26:38;15.70;54.70
40868;DHT22;26586;50.708;22.412;2022-11-15T01:29:05;15.70;54.90
40868;DHT22;26586;50.708;22.412;2022-11-15T01:31:31;15.70;55.10
40868;DHT22;26586;50.708;22.412;2022-11-15T01:33:57;15.70;54.90
40868;DHT22;26586;50.708;22.412;2022-11-15T01:36:23;15.70;54.80
40868;DHT22;26586;50.708;22.412;2022-11-15T01:38:54;15.70;55.50
40868;DHT22;26586;50.708;22.412;2022-11-15T01:41:26;15.70;54.90
40868;DHT22;26586;50.708;22.412;2022-11-15T01:43:55;15.70;55.10
40868;DHT22;26586;50.708;22.412;2022-11-15T01:46:34;15.70;55.10
40868;DHT22;26586;50.708;22.412;2022-11-15T01:49:06;15.70;54.70
40868;DHT22;26586;50.708;22.412;2022-11-15T01:51:37;15.70;54.90
40868;DHT22;26586;50.708;22.412;2022-11-15T01:54:08;15.70;55.40
40868;DHT22;26586;50.708;22.412;2022-11-15T01:56:43;15.70;55.90
40868;DHT22;26586;50.708;22.412;2022-11-15T01:59:11;15.70;55.40
40868;DHT22;26586;50.708;22.412;2022-11-15T02:01:38;15.70;55.00
40868;DHT22;26586;50.708;22.412;2022-11-15T02:04:12;15.70;55.40
40868;DHT22;26586;50.708;22.412;2022-11-15T02:06:39;15.70;55.00
40868;DHT22;26586;50.708;22.412;2022-11-15T02:09:07;15.70;55.50
40868;DHT22;26586;50.708;22.412;2022-11-15T02:11:33;15.70;55.80
40868;DHT22;26586;50.708;22.412;2022-11-15T02:14:00;15.70;56.00
40868;DHT22;26586;50.708;22.412;2022-11-15T02:16:29;15.70;56.20
40868;DHT22;26586;50.708;22.412;2022-11-15T02:29:35;15.70;56.40
40868;DHT22;26586;50.708;22.412;2022-11-15T02:37:55;15.70;56.40
40868;DHT22;26586;50.708;22.412;2022-11-15T02:43:03;15.70;56.10
40868;DHT22;26586;50.708;22.412;2022-11-15T02:45:53;15.70;55.70
40868;DHT22;26586;50.708;22.412;2022-11-15T02:48:24;15.70;55.70
40868;DHT22;26586;50.708;22.412;2022-11-15T02:50:51;15.70;55.90
40868;DHT22;26586;50.708;22.412;2022-11-15T02:53:18;15.70;55.60
40868;DHT22;26586;50.708;22.412;2022-11-15T02:55:46;15.60;55.60
40868;DHT22;26586;50.708;22.412;2022-11-15T03:01:24;15.60;55.00
40868;DHT22;26586;50.708;22.412;2022-11-15T03:12:08;15.60;54.20
40868;DHT22;26586;50.708;22.412;2022-11-15T03:15:06;15.60;54.50
40868;DHT22;26586;50.708;22.412;2022-11-15T03:17:39;15.60;54.80
40868;DHT22;26586;50.708;22.412;2022-11-15T03:20:07;15.60;55.30
40868;DHT22;26586;50.708;22.412;2022-11-15T03:22:42;15.60;55.30
40868;DHT22;26586;50.708;22.412;2022-11-15T03:25:10;15.60;56.10
40868;DHT22;26586;50.708;22.412;2022-11-15T03:27:44;15.60;55.10
40868;DHT22;26586;50.708;22.412;2022-11-15T03:30:13;15.60;54.70
40868;DHT22;26586;50.708;22.412;2022-11-15T03:32:50;15.60;54.90
40868;DHT22;26586;50.708;22.412;2022-11-15T03:35:21;15.50;54.60
40868;DHT22;26586;50.708;22.412;2022-11-15T03:40:16;15.60;54.60
40868;DHT22;26586;50.708;22.412;2022-11-15T03:42:51;15.50;54.70
40868;DHT22;26586;50.708;22.412;2022-11-15T03:45:40;15.50;54.40
40868;DHT22;26586;50.708;22.412;2022-11-15T03:48:18;15.50;54.60
40868;DHT22;26586;50.708;22.412;2022-11-15T03:50:46;15.50;54.60
40868;DHT22;26586;50.708;22.412;2022-11-15T03:53:13;15.50;54.70
40868;DHT22;26586;50.708;22.412;2022-11-15T03:55:39;15.50;54.40
40868;DHT22;26586;50.708;22.412;2022-11-15T03:58:06;15.50;55.20
40868;DHT22;26586;50.708;22.412;2022-11-15T04:00:32;15.50;55.60
40868;DHT22;26586;50.708;22.412;2022-11-15T04:02:58;15.50;55.90
40868;DHT22;26586;50.708;22.412;2022-11-15T04:05:24;15.50;56.40
40868;DHT22;26586;50.708;22.412;2022-11-15T04:07:51;15.50;55.30
40868;DHT22;26586;50.708;22.412;2022-11-15T04:10:17;15.50;55.20
40868;DHT22;26586;50.708;22.412;2022-11-15T04:12:45;15.50;55.30
40868;DHT22;26586;50.708;22.412;2022-11-15T04:15:21;15.50;56.20
40868;DHT22;26586;50.708;22.412;2022-11-15T04:17:50;15.50;55.60
40868;DHT22;26586;50.708;22.412;2022-11-15T04:20:22;15.50;54.70
40868;DHT22;26586;50.708;22.412;2022-11-15T04:23:11;15.50;55.10
40868;DHT22;26586;50.708;22.412;2022-11-15T04:25:57;15.50;54.30
40868;DHT22;26586;50.708;22.412;2022-11-15T04:28:24;15.50;54.10
40868;DHT22;26586;50.708;22.412;2022-11-15T04:30:50;15.40;54.80
40868;DHT22;26586;50.708;22.412;2022-11-15T04:33:16;15.50;54.40
40868;DHT22;26586;50.708;22.412;2022-11-15T04:35:43;15.50;55.70
40868;DHT22;26586;50.708;22.412;2022-11-15T04:38:10;15.40;54.20
40868;DHT22;26586;50.708;22.412;2022-11-15T04:40:37;15.40;54.00
40868;DHT22;26586;50.708;22.412;2022-11-15T04:43:04;15.40;53.80
40868;DHT22;26586;50.708;22.412;2022-11-15T04:45:30;15.40;53.50
40868;DHT22;26586;50.708;22.412;2022-11-15T04:47:57;15.40;53.90
40868;DHT22;26586;50.708;22.412;2022-11-15T04:50:23;15.40;54.60
40868;DHT22;26586;50.708;22.412;2022-11-15T04:52:53;15.40;54.70
40868;DHT22;26586;50.708;22.412;2022-11-15T04:55:20;15.40;54.10
40868;DHT22;26586;50.708;22.412;2022-11-15T04:57:46;15.40;54.60
40868;DHT22;26586;50.708;22.412;2022-11-15T05:00:15;15.30;54.00
40868;DHT22;26586;50.708;22.412;2022-11-15T05:02:41;15.30;54.50
40868;DHT22;26586;50.708;22.412;2022-11-15T05:05:26;15.30;54.70
40868;DHT22;26586;50.708;22.412;2022-11-15T05:07:52;15.30;54.40
40868;DHT22;26586;50.708;22.412;2022-11-15T05:10:18;15.30;54.20
40868;DHT22;26586;50.708;22.412;2022-11-15T05:12:46;15.30;54.10
40868;DHT22;26586;50.708;22.412;2022-11-15T05:15:12;15.30;54.20
40868;DHT22;26586;50.708;22.412;2022-11-15T05:17:38;15.30;54.40
40868;DHT22;26586;50.708;22.412;2022-11-15T05:20:08;15.30;54.40
40868;DHT22;26586;50.708;22.412;2022-11-15T05:22:34;15.30;54.10
40868;DHT22;26586;50.708;22.412;2022-11-15T05:25:00;15.30;54.00
40868;DHT22;26586;50.708;22.412;2022-11-15T05:27:27;15.30;53.90
40868;DHT22;26586;50.708;22.412;2022-11-15T05:29:53;15.30;53.70
40868;DHT22;26586;50.708;22.412;2022-11-15T05:32:19;15.30;54.10
40868;DHT22;26586;50.708;22.412;2022-11-15T05:34:46;15.30;54.50
40868;DHT22;26586;50.708;22.412;2022-11-15T05:37:13;15.30;54.10
40868;DHT22;26586;50.708;22.412;2022-11-15T05:39:39;15.30;54.00
40868;DHT22;26586;50.708;22.412;2022-11-15T05:42:11;15.40;54.60
40868;DHT22;26586;50.708;22.412;2022-11-15T05:44:40;15.40;54.40
40868;DHT22;26586;50.708;22.412;2022-11-15T05:47:10;15.40;54.00
40868;DHT22;26586;50.708;22.412;2022-11-15T05:49:39;15.40;54.60
40868;DHT22;26586;50.708;22.412;2022-11-15T05:52:10;15.40;54.00
40868;DHT22;26586;50.708;22.412;2022-11-15T05:54:38;15.40;53.90
40868;DHT22;26586;50.708;22.412;2022-11-15T05:57:05;15.50;53.70
40868;DHT22;26586;50.708;22.412;2022-11-15T05:59:32;15.50;53.90
40868;DHT22;26586;50.708;22.412;2022-11-15T06:01:59;15.50;54.00
40868;DHT22;26586;50.708;22.412;2022-11-15T06:04:25;15.50;53.20
40868;DHT22;26586;50.708;22.412;2022-11-15T06:06:51;15.50;52.90
40868;DHT22;26586;50.708;22.412;2022-11-15T06:09:17;15.50;52.70
40868;DHT22;26586;50.708;22.412;2022-11-15T06:11:44;15.50;52.70
40868;DHT22;26586;50.708;22.412;2022-11-15T06:14:10;15.50;52.90
40868;DHT22;26586;50.708;22.412;2022-11-15T06:16:36;15.50;52.70
40868;DHT22;26586;50.708;22.412;2022-11-15T06:19:02;15.40;52.80
40868;DHT22;26586;50.708;22.412;2022-11-15T06:21:29;15.40;53.00
40868;DHT22;26586;50.708;22.412;2022-11-15T06:23:55;15.40;53.30
40868;DHT22;26586;50.708;22.412;2022-11-15T06:26:21;15.40;53.20
40868;DHT22;26586;50.708;22.412;2022-11-15T06:28:47;15.40;53.30
40868;DHT22;26586;50.708;22.412;2022-11-15T06:31:14;15.40;53.40
40868;DHT22;26586;50.708;22.412;2022-11-15T06:33:40;15.40;53.40
40868;DHT22;26586;50.708;22.412;2022-11-15T06:36:09;15.40;53.50
40868;DHT22;26586;50.708;22.412;2022-11-15T06:38:36;15.40;53.50
40868;DHT22;26586;50.708;22.412;2022-11-15T06:41:05;15.40;53.80
40868;DHT22;26586;50.708;22.412;2022-11-15T06:43:31;15.40;53.70
40868;DHT22;26586;50.708;22.412;2022-11-15T06:45:59;15.40;53.70
40868;DHT22;26586;50.708;22.412;2022-11-15T06:48:25;15.40;53.40
40868;DHT22;26586;50.708;22.412;2022-11-15T06:50:52;15.50;53.70
40868;DHT22;26586;50.708;22.412;2022-11-15T06:53:19;15.40;53.40
40868;DHT22;26586;50.708;22.412;2022-11-15T06:55:45;15.40;53.40
40868;DHT22;26586;50.708;22.412;2022-11-15T06:58:11;15.40;53.50
40868;DHT22;26586;50.708;22.412;2022-11-15T07:00:38;15.50;53.20
40868;DHT22;26586;50.708;22.412;2022-11-15T07:03:04;15.40;53.20
40868;DHT22;26586;50.708;22.412;2022-11-15T07:05:31;15.40;53.00
40868;DHT22;26586;50.708;22.412;2022-11-15T07:07:58;15.40;52.80
40868;DHT22;26586;50.708;22.412;2022-11-15T07:10:25;15.40;53.60
40868;DHT22;26586;50.708;22.412;2022-11-15T07:12:52;15.40;53.20
40868;DHT22;26586;50.708;22.412;2022-11-15T07:15:20;15.40;53.40
40868;DHT22;26586;50.708;22.412;2022-11-15T07:17:46;15.40;53.50
40868;DHT22;26586;50.708;22.412;2022-11-15T07:20:13;15.50;53.50
40868;DHT22;26586;50.708;22.412;2022-11-15T07:22:42;15.50;53.50
40868;DHT22;26586;50.708;22.412;2022-11-15T07:25:09;15.50;53.40
40868;DHT22;26586;50.708;22.412;2022-11-15T07:27:35;15.50;53.60
40868;DHT22;26586;50.708;22.412;2022-11-15T07:30:02;15.50;53.30
40868;DHT22;26586;50.708;22.412;2022-11-15T07:32:28;15.40;53.00
40868;DHT22;26586;50.708;22.412;2022-11-15T07:34:55;15.40;53.00
40868;DHT22;26586;50.708;22.412;2022-11-15T07:37:21;15.40;53.00
40868;DHT22;26586;50.708;22.412;2022-11-15T07:39:48;15.40;53.00
40868;DHT22;26586;50.708;22.412;2022-11-15T07:42:14;15.40;53.20
40868;DHT22;26586;50.708;22.412;2022-11-15T07:44:59;15.40;52.70
40868;DHT22;26586;50.708;22.412;2022-11-15T07:47:25;15.30;52.40
40868;DHT22;26586;50.708;22.412;2022-11-15T07:49:51;15.30;53.60
40868;DHT22;26586;50.708;22.412;2022-11-15T07:52:17;15.20;53.30
40868;DHT22;26586;50.708;22.412;2022-11-15T07:54:44;15.30;53.40
40868;DHT22;26586;50.708;22.412;2022-11-15T07:57:11;15.30;53.50
40868;DHT22;26586;50.708;22.412;2022-11-15T07:59:38;15.30;53.50
40868;DHT22;26586;50.708;22.412;2022-11-15T08:02:04;15.30;53.70
40868;DHT22;26586;50.708;22.412;2022-11-15T08:04:31;15.40;53.50
40868;DHT22;26586;50.708;22.412;2022-11-15T08:06:57;15.40;53.50
40868;DHT22;26586;50.708;22.412;2022-11-15T08:09:24;15.40;53.40
40868;DHT22;26586;50.708;22.412;2022-11-15T08:11:50;15.40;53.60
40868;DHT22;26586;50.708;22.412;2022-11-15T08:14:17;15.40;53.80
40868;DHT22;26586;50.708;22.412;2022-11-15T08:16:43;15.40;53.60
40868;DHT22;26586;50.708;22.412;2022-11-15T08:19:09;15.50;53.50
40868;DHT22;26586;50.708;22.412;2022-11-15T08:21:35;15.50;54.20
40868;DHT22;26586;50.708;22.412;2022-11-15T08:24:03;15.50;54.00
40868;DHT22;26586;50.708;22.412;2022-11-15T08:26:29;15.50;53.70
40868;DHT22;26586;50.708;22.412;2022-11-15T08:28:56;15.50;53.70
40868;DHT22;26586;50.708;22.412;2022-11-15T08:31:22;15.50;53.60
40868;DHT22;26586;50.708;22.412;2022-11-15T08:33:48;15.50;53.60
40868;DHT22;26586;50.708;22.412;2022-11-15T08:36:16;15.50;53.80
40868;DHT22;26586;50.708;22.412;2022-11-15T08:38:43;15.60;53.70
40868;DHT22;26586;50.708;22.412;2022-11-15T08:41:19;15.50;53.60
40868;DHT22;26586;50.708;22.412;2022-11-15T08:43:49;15.60;53.40
40868;DHT22;26586;50.708;22.412;2022-11-15T08:46:15;15.60;53.40
40868;DHT22;26586;50.708;22.412;2022-11-15T08:48:42;15.50;53.80
40868;DHT22;26586;50.708;22.412;2022-11-15T08:51:08;15.60;54.00
40868;DHT22;26586;50.708;22.412;2022-11-15T08:53:34;15.60;53.80
40868;DHT22;26586;50.708;22.412;2022-11-15T08:56:01;15.60;53.90
40868;DHT22;26586;50.708;22.412;2022-11-15T08:58:27;15.60;53.80
40868;DHT22;26586;50.708;22.412;2022-11-15T09:00:54;15.70;53.70
40868;DHT22;26586;50.708;22.412;2022-11-15T09:03:21;15.60;53.50
40868;DHT22;26586;50.708;22.412;2022-11-15T09:05:47;15.70;54.10
40868;DHT22;26586;50.708;22.412;2022-11-15T09:08:13;15.70;53.40
40868;DHT22;26586;50.708;22.412;2022-11-15T09:10:39;15.70;53.50
40868;DHT22;26586;50.708;22.412;2022-11-15T09:13:06;15.70;53.20
40868;DHT22;26586;50.708;22.412;2022-11-15T09:15:32;15.70;53.40
40868;DHT22;26586;50.708;22.412;2022-11-15T09:17:59;15.70;53.40
40868;DHT22;26586;50.708;22.412;2022-11-15T09:20:25;15.80;53.40
40868;DHT22;26586;50.708;22.412;2022-11-15T09:22:51;15.80;53.50
40868;DHT22;26586;50.708;22.412;2022-11-15T09:25:17;15.80;53.60
40868;DHT22;26586;50.708;22.412;2022-11-15T09:27:44;15.80;53.40
40868;DHT22;26586;50.708;22.412;2022-11-15T09:30:10;15.80;53.50
40868;DHT22;26586;50.708;22.412;2022-11-15T09:32:37;15.80;52.90
40868;DHT22;26586;50.708;22.412;2022-11-15T09:35:03;15.80;53.30
40868;DHT22;26586;50.708;22.412;2022-11-15T09:37:31;15.80;53.30
40868;DHT22;26586;50.708;22.412;2022-11-15T09:39:58;15.80;53.00
40868;DHT22;26586;50.708;22.412;2022-11-15T09:42:55;15.80;53.50
40868;DHT22;26586;50.708;22.412;2022-11-15T09:50:46;15.80;53.10
40868;DHT22;26586;50.708;22.412;2022-11-15T09:53:24;15.90;53.00
40868;DHT22;26586;50.708;22.412;2022-11-15T09:55:59;15.80;53.00
40868;DHT22;26586;50.708;22.412;2022-11-15T09:58:38;15.90;53.10
40868;DHT22;26586;50.708;22.412;2022-11-15T10:01:16;15.90;52.90
40868;DHT22;26586;50.708;22.412;2022-11-15T10:03:43;15.90;53.00
40868;DHT22;26586;50.708;22.412;2022-11-15T10:06:38;15.90;53.20
40868;DHT22;26586;50.708;22.412;2022-11-15T10:09:15;15.90;53.30
40868;DHT22;26586;50.708;22.412;2022-11-15T10:11:43;15.90;54.20
40868;DHT22;26586;50.708;22.412;2022-11-15T10:14:18;15.90;54.20
40868;DHT22;26586;50.708;22.412;2022-11-15T10:22:50;15.90;54.20
40868;DHT22;26586;50.708;22.412;2022-11-15T10:25:26;15.90;54.20
40868;DHT22;26586;50.708;22.412;2022-11-15T10:30:31;16.00;54.10
40868;DHT22;26586;50.708;22.412;2022-11-15T10:32:57;16.00;53.80
40868;DHT22;26586;50.708;22.412;2022-11-15T10:35:30;16.00;54.50
40868;DHT22;26586;50.708;22.412;2022-11-15T10:38:12;16.00;54.30
40868;DHT22;26586;50.708;22.412;2022-11-15T10:40:40;16.00;54.10
40868;DHT22;26586;50.708;22.412;2022-11-15T10:43:13;16.00;55.30
40868;DHT22;26586;50.708;22.412;2022-11-15T10:45:41;16.10;56.00
40868;DHT22;26586;50.708;22.412;2022-11-15T10:50:44;16.10;54.10
40868;DHT22;26586;50.708;22.412;2022-11-15T10:53:41;16.10;54.70
40868;DHT22;26586;50.708;22.412;2022-11-15T10:56:13;16.10;54.90
40868;DHT22;26586;50.708;22.412;2022-11-15T10:58:51;16.10;55.80
40868;DHT22;26586;50.708;22.412;2022-11-15T11:01:25;16.10;58.30
40868;DHT22;26586;50.708;22.412;2022-11-15T11:04:00;16.20;58.70
40868;DHT22;26586;50.708;22.412;2022-11-15T11:06:27;16.20;58.80
40868;DHT22;26586;50.708;22.412;2022-11-15T11:09:04;16.20;58.80
40868;DHT22;26586;50.708;22.412;2022-11-15T11:11:50;16.20;57.30
40868;DHT22;26586;50.708;22.412;2022-11-15T11:22:40;16.30;57.20
40868;DHT22;26586;50.708;22.412;2022-11-15T11:25:20;16.40;56.50
40868;DHT22;26586;50.708;22.412;2022-11-15T11:34:21;16.40;57.10
40868;DHT22;26586;50.708;22.412;2022-11-15T11:37:03;16.50;58.40
40868;DHT22;26586;50.708;22.412;2022-11-15T11:39:55;16.50;60.20
40868;DHT22;26586;50.708;22.412;2022-11-15T11:42:53;16.50;60.20
40868;DHT22;26586;50.708;22.412;2022-11-15T11:48:14;16.70;60.60
40868;DHT22;26586;50.708;22.412;2022-11-15T11:50:45;16.70;60.60
40868;DHT22;26586;50.708;22.412;2022-11-15T11:53:18;16.70;61.30
40868;DHT22;26586;50.708;22.412;2022-11-15T11:55:54;16.80;60.90
40868;DHT22;26586;50.708;22.412;2022-11-15T11:58:27;16.80;61.60
40868;DHT22;26586;50.708;22.412;2022-11-15T12:03:43;16.90;59.30
40868;DHT22;26586;50.708;22.412;2022-11-15T12:16:58;17.00;58.00
40868;DHT22;26586;50.708;22.412;2022-11-15T12:19:24;17.10;57.60
40868;DHT22;26586;50.708;22.412;2022-11-15T12:22:02;17.10;58.70
40868;DHT22;26586;50.708;22.412;2022-11-15T12:24:43;17.10;57.10
40868;DHT22;26586;50.708;22.412;2022-11-15T12:27:32;17.10;57.10
40868;DHT22;26586;50.708;22.412;2022-11-15T12:30:17;17.20;57.50
40868;DHT22;26586;50.708;22.412;2022-11-15T12:32:57;17.20;58.40
40868;DHT22;26586;50.708;22.412;2022-11-15T12:35:37;17.20;58.10
40868;DHT22;26586;50.708;22.412;2022-11-15T12:38:04;17.20;56.90
40868;DHT22;26586;50.708;22.412;2022-11-15T12:40:36;17.30;57.40
40868;DHT22;26586;50.708;22.412;2022-11-15T12:45:43;17.30;57.40
40868;DHT22;26586;50.708;22.412;2022-11-15T12:58:49;17.50;58.00
40868;DHT22;26586;50.708;22.412;2022-11-15T13:15:01;17.60;59.60
40868;DHT22;26586;50.708;22.412;2022-11-15T13:27:52;17.80;59.80
40868;DHT22;26586;50.708;22.412;2022-11-15T13:30:23;17.80;59.50
40868;DHT22;26586;50.708;22.412;2022-11-15T13:32:50;17.80;59.00
40868;DHT22;26586;50.708;22.412;2022-11-15T13:35:25;17.90;60.00
40868;DHT22;26586;50.708;22.412;2022-11-15T13:37:54;17.90;58.20
40868;DHT22;26586;50.708;22.412;2022-11-15T13:40:27;17.90;58.80
40868;DHT22;26586;50.708;22.412;2022-11-15T13:42:58;17.90;57.50
40868;DHT22;26586;50.708;22.412;2022-11-15T13:45:25;18.00;58.70
40868;DHT22;26586;50.708;22.412;2022-11-15T13:47:55;18.00;58.10
40868;DHT22;26586;50.708;22.412;2022-11-15T13:50:30;18.00;58.00
40868;DHT22;26586;50.708;22.412;2022-11-15T13:53:00;18.00;58.50
40868;DHT22;26586;50.708;22.412;2022-11-15T13:55:28;18.00;58.80
40868;DHT22;26586;50.708;22.412;2022-11-15T13:58:00;18.00;59.40
40868;DHT22;26586;50.708;22.412;2022-11-15T14:03:19;18.10;59.30
40868;DHT22;26586;50.708;22.412;2022-11-15T14:06:12;18.10;58.70
40868;DHT22;26586;50.708;22.412;2022-11-15T14:11:31;18.10;58.50
40868;DHT22;26586;50.708;22.412;2022-11-15T14:14:11;18.10;58.50
40868;DHT22;26586;50.708;22.412;2022-11-15T14:16:46;18.20;57.30
40868;DHT22;26586;50.708;22.412;2022-11-15T14:19:33;18.20;57.00
40868;DHT22;26586;50.708;22.412;2022-11-15T14:22:22;18.20;56.50
40868;DHT22;26586;50.708;22.412;2022-11-15T14:27:40;18.20;56.50
40868;DHT22;26586;50.708;22.412;2022-11-15T14:30:13;18.20;55.90
40868;DHT22;26586;50.708;22.412;2022-11-15T14:32:48;18.20;54.70
40868;DHT22;26586;50.708;22.412;2022-11-15T14:35:20;18.20;53.60
40868;DHT22;26586;50.708;22.412;2022-11-15T14:37:47;18.20;53.70
40868;DHT22;26586;50.708;22.412;2022-11-15T14:40:18;18.20;53.60
40868;DHT22;26586;50.708;22.412;2022-11-15T14:42:46;18.20;53.30
40868;DHT22;26586;50.708;22.412;2022-11-15T14:45:19;18.20;53.10
40868;DHT22;26586;50.708;22.412;2022-11-15T14:47:47;18.20;53.00
40868;DHT22;26586;50.708;22.412;2022-11-15T14:50:15;18.20;53.10
40868;DHT22;26586;50.708;22.412;2022-11-15T14:52:42;18.10;52.70
40868;DHT22;26586;50.708;22.412;2022-11-15T14:55:32;18.20;52.40
40868;DHT22;26586;50.708;22.412;2022-11-15T14:58:03;18.10;52.20
40868;DHT22;26586;50.708;22.412;2022-11-15T15:00:30;18.10;52.30
40868;DHT22;26586;50.708;22.412;2022-11-15T15:02:57;18.10;52.00
40868;DHT22;26586;50.708;22.412;2022-11-15T15:05:29;18.10;52.00
40868;DHT22;26586;50.708;22.412;2022-11-15T15:07:56;18.10;52.10
40868;DHT22;26586;50.708;22.412;2022-11-15T15:10:23;18.10;52.90
40868;DHT22;26586;50.708;22.412;2022-11-15T15:12:50;18.10;52.50
40868;DHT22;26586;50.708;22.412;2022-11-15T15:15:21;18.10;52.00
40868;DHT22;26586;50.708;22.412;2022-11-15T15:17:48;18.10;51.50
40868;DHT22;26586;50.708;22.412;2022-11-15T15:20:14;18.00;51.50
40868;DHT22;26586;50.708;22.412;2022-11-15T15:22:41;18.00;51.30
40868;DHT22;26586;50.708;22.412;2022-11-15T15:25:28;18.00;51.60
40868;DHT22;26586;50.708;22.412;2022-11-15T15:27:56;18.00;51.70
40868;DHT22;26586;50.708;22.412;2022-11-15T15:30:23;18.00;52.20
40868;DHT22;26586;50.708;22.412;2022-11-15T15:32:50;18.00;51.90
40868;DHT22;26586;50.708;22.412;2022-11-15T15:35:17;18.00;51.80
40868;DHT22;26586;50.708;22.412;2022-11-15T15:37:45;17.90;51.90
40868;DHT22;26586;50.708;22.412;2022-11-15T15:40:20;18.00;52.20
40868;DHT22;26586;50.708;22.412;2022-11-15T15:42:49;17.90;52.60
40868;DHT22;26586;50.708;22.412;2022-11-15T15:45:17;17.90;52.90
40868;DHT22;26586;50.708;22.412;2022-11-15T15:47:44;17.90;53.60
40868;DHT22;26586;50.708;22.412;2022-11-15T15:50:28;17.90;53.40
40868;DHT22;26586;50.708;22.412;2022-11-15T15:52:56;17.90;52.40
40868;DHT22;26586;50.708;22.412;2022-11-15T15:55:23;17.90;52.30
40868;DHT22;26586;50.708;22.412;2022-11-15T15:57:50;17.90;52.20
40868;DHT22;26586;50.708;22.412;2022-11-15T16:00:17;17.90;51.90
40868;DHT22;26586;50.708;22.412;2022-11-15T16:02:44;17.90;52.10
40868;DHT22;26586;50.708;22.412;2022-11-15T16:05:10;17.90;52.00
40868;DHT22;26586;50.708;22.412;2022-11-15T16:07:37;17.80;51.40
40868;DHT22;26586;50.708;22.412;2022-11-15T16:10:33;17.80;51.60
40868;DHT22;26586;50.708;22.412;2022-11-15T16:13:03;17.80;51.50
40868;DHT22;26586;50.708;22.412;2022-11-15T16:15:30;17.80;52.10
40868;DHT22;26586;50.708;22.412;2022-11-15T16:17:59;17.80;52.30
40868;DHT22;26586;50.708;22.412;2022-11-15T16:20:41;17.80;52.60
40868;DHT22;26586;50.708;22.412;2022-11-15T16:23:12;17.80;55.20
40868;DHT22;26586;50.708;22.412;2022-11-15T16:25:52;17.80;53.30
40868;DHT22;26586;50.708;22.412;2022-11-15T16:28:29;17.80;53.40
40868;DHT22;26586;50.708;22.412;2022-11-15T16:33:26;17.70;53.20
40868;DHT22;26586;50.708;22.412;2022-11-15T16:35:52;17.70;52.40
40868;DHT22;26586;50.708;22.412;2022-11-15T16:38:19;17.70;53.00
40868;DHT22;26586;50.708;22.412;2022-11-15T16:40:45;17.70;52.90
40868;DHT22;26586;50.708;22.412;2022-11-15T16:43:11;17.70;53.20
40868;DHT22;26586;50.708;22.412;2022-11-15T16:45:38;17.70;53.20
40868;DHT22;26586;50.708;22.412;2022-11-15T16:48:04;17.70;53.60
40868;DHT22;26586;50.708;22.412;2022-11-15T16:50:33;17.70;53.40
40868;DHT22;26586;50.708;22.412;2022-11-15T16:53:06;17.70;53.40
40868;DHT22;26586;50.708;22.412;2022-11-15T16:55:32;17.60;53.10
40868;DHT22;26586;50.708;22.412;2022-11-15T16:57:58;17.60;53.30
40868;DHT22;26586;50.708;22.412;2022-11-15T17:00:26;17.60;53.70
40868;DHT22;26586;50.708;22.412;2022-11-15T17:02:52;17.60;53.70
40868;DHT22;26586;50.708;22.412;2022-11-15T17:05:21;17.60;54.10
40868;DHT22;26586;50.708;22.412;2022-11-15T17:07:49;17.60;54.70
40868;DHT22;26586;50.708;22.412;2022-11-15T17:10:17;17.60;54.40
40868;DHT22;26586;50.708;22.412;2022-11-15T17:12:43;17.60;54.70
40868;DHT22;26586;50.708;22.412;2022-11-15T17:15:12;17.60;54.90
40868;DHT22;26586;50.708;22.412;2022-11-15T17:17:39;17.60;53.90
40868;DHT22;26586;50.708;22.412;2022-11-15T17:20:06;17.60;54.00
40868;DHT22;26586;50.708;22.412;2022-11-15T17:22:36;17.60;54.20
40868;DHT22;26586;50.708;22.412;2022-11-15T17:25:03;17.60;54.30
40868;DHT22;26586;50.708;22.412;2022-11-15T17:27:30;17.60;54.80
40868;DHT22;26586;50.708;22.412;2022-11-15T17:29:57;17.60;56.00
40868;DHT22;26586;50.708;22.412;2022-11-15T17:32:23;17.60;55.60
40868;DHT22;26586;50.708;22.412;2022-11-15T17:34:49;17.60;55.20
40868;DHT22;26586;50.708;22.412;2022-11-15T17:37:16;17.60;54.70
40868;DHT22;26586;50.708;22.412;2022-11-15T17:39:42;17.50;54.60